Time;durP1;ratioP1;P1;durP2;ratioP2;P2;SDS_P1;SDS_P2;PMS_P1;PMS_P2;Temp;Humidity;BMP_temperature;BMP_pressure;BME280_temperature;BME280_humidity;BME280_pressure;Samples;Min_cycle;Max_cycle;Signal;HPM_P1;HPM_P2
2022/09/24 00:01:27;;;;;;;2.22;1.55;;;;;;;;;;7394050;19;20003;-72
2022/09/24 00:03:55;;;;;;;2.47;1.50;;;;;;;;;;7394965;19;20018;-72
2022/09/24 00:06:22;;;;;;;2.10;1.30;;;;;;;;;;7395493;19;20014;-72
2022/09/24 00:08:50;;;;;;;5.47;1.58;;;;;;;;;;7395389;19;20024;-72
2022/09/24 00:11:20;;;;;;;4.32;1.52;;;;;;;;;;7391087;19;19994;-72
2022/09/24 00:13:47;;;;;;;2.50;1.55;;;;;;;;;;7391906;19;19998;-72
2022/09/24 00:16:14;;;;;;;2.55;1.52;;;;;;;;;;7395865;19;20014;-71
2022/09/24 00:18:40;;;;;;;2.00;1.50;;;;;;;;;;7392121;19;20010;-72
2022/09/24 00:21:20;;;;;;;1.92;1.48;;;;;;;;;;7394552;19;20023;-72
2022/09/24 00:23:51;;;;;;;2.30;1.10;;;;;;;;;;7396465;19;20002;-72
2022/09/24 00:29:01;;;;;;;3.15;1.52;;;;;;;;;;7395440;19;20016;-72
2022/09/24 00:31:26;;;;;;;1.98;1.45;;;;;;;;;;7391178;19;19998;-71
2022/09/24 00:33:53;;;;;;;2.15;1.17;;;;;;;;;;7390848;19;20573;-71
2022/09/24 00:36:20;;;;;;;5.15;1.50;;;;;;;;;;7392840;19;20362;-72
2022/09/24 00:38:57;;;;;;;1.98;1.23;;;;;;;;;;7394139;19;20006;-72
2022/09/24 00:41:29;;;;;;;1.65;1.23;;;;;;;;;;7390510;19;20008;-71
2022/09/24 00:43:54;;;;;;;1.52;1.23;;;;;;;;;;7391703;19;20008;-72
2022/09/24 00:46:28;;;;;;;2.33;1.40;;;;;;;;;;7392056;19;20423;-72
2022/09/24 00:48:57;;;;;;;2.25;1.58;;;;;;;;;;7389470;19;19999;-72
2022/09/24 00:51:25;;;;;;;6.65;2.00;;;;;;;;;;7390733;19;20007;-71
2022/09/24 00:53:55;;;;;;;3.35;1.52;;;;;;;;;;7393791;19;20349;-71
2022/09/24 00:56:21;;;;;;;3.58;1.80;;;;;;;;;;7390074;19;20077;-72
2022/09/24 00:58:51;;;;;;;4.18;1.75;;;;;;;;;;7389492;19;19998;-72
2022/09/24 01:01:19;;;;;;;5.88;1.80;;;;;;;;;;7390764;19;19999;-72
2022/09/24 01:03:46;;;;;;;2.83;1.90;;;;;;;;;;7392075;19;20019;-72
2022/09/24 01:06:12;;;;;;;2.45;1.45;;;;;;;;;;7391673;19;20149;-72
2022/09/24 01:08:38;;;;;;;2.30;1.35;;;;;;;;;;7392637;19;20111;-71
2022/09/24 01:11:16;;;;;;;2.65;1.42;;;;;;;;;;7389254;19;20504;-72
2022/09/24 01:13:51;;;;;;;2.38;1.67;;;;;;;;;;7391004;19;19999;-72
2022/09/24 01:16:37;;;;;;;;;;;;;;;;;;7390723;19;20361;-72
2022/09/24 01:19:36;;;;;;;2.20;1.20;;;;;;;;;;7389244;19;19919;-72
2022/09/24 01:22:11;;;;;;;2.22;1.27;;;;;;;;;;7391893;19;20066;-72
2022/09/24 01:24:53;;;;;;;3.17;1.70;;;;;;;;;;7388309;19;20026;-71
2022/09/24 01:27:57;;;;;;;2.08;1.50;;;;;;;;;;7393461;19;19994;-72
2022/09/24 01:30:24;;;;;;;1.77;1.10;;;;;;;;;;7389304;19;20015;-72
2022/09/24 01:32:53;;;;;;;1.52;1.42;;;;;;;;;;7390393;19;20005;-71
2022/09/24 01:35:34;;;;;;;2.40;1.50;;;;;;;;;;7390481;19;20492;-72
2022/09/24 01:38:08;;;;;;;2.28;1.52;;;;;;;;;;7391758;19;20296;-72
2022/09/24 01:40:35;;;;;;;1.75;1.63;;;;;;;;;;7390635;19;20047;-72
2022/09/24 01:43:04;;;;;;;1.77;1.60;;;;;;;;;;7392415;19;20371;-72
2022/09/24 01:45:30;;;;;;;2.05;1.80;;;;;;;;;;7388992;19;20511;-72
2022/09/24 01:47:59;;;;;;;3.83;1.60;;;;;;;;;;7393027;19;20018;-72
2022/09/24 01:50:28;;;;;;;2.20;1.35;;;;;;;;;;7388617;19;20451;-72
2022/09/24 01:53:08;;;;;;;2.75;1.55;;;;;;;;;;7391748;19;20002;-72
2022/09/24 01:55:41;;;;;;;2.05;1.50;;;;;;;;;;7390635;19;19999;-72
2022/09/24 01:58:09;;;;;;;2.70;1.58;;;;;;;;;;7388518;19;20020;-72
2022/09/24 02:00:38;;;;;;;2.47;1.60;;;;;;;;;;7390788;19;20075;-72
2022/09/24 02:03:11;;;;;;;2.83;1.40;;;;;;;;;;7392796;19;20475;-72
2022/09/24 02:06:01;;;;;;;2.10;1.48;;;;;;;;;;7394483;19;20007;-72
2022/09/24 02:08:37;;;;;;;1.60;1.40;;;;;;;;;;7397951;19;20322;-72
2022/09/24 02:11:16;;;;;;;2.30;1.52;;;;;;;;;;7394170;19;20003;-71
2022/09/24 02:13:46;;;;;;;2.47;1.58;;;;;;;;;;7398940;19;20328;-72
2022/09/24 02:16:15;;;;;;;1.67;1.55;;;;;;;;;;7395952;19;20002;-72
2022/09/24 02:18:43;;;;;;;2.10;1.70;;;;;;;;;;7397058;19;20104;-71
2022/09/24 02:21:12;;;;;;;1.88;1.60;;;;;;;;;;7398384;19;20006;-72
2022/09/24 02:23:43;;;;;;;2.08;1.45;;;;;;;;;;7399523;19;19998;-72
2022/09/24 02:26:09;;;;;;;2.63;1.65;;;;;;;;;;7397531;19;20070;-72
2022/09/24 02:28:34;;;;;;;1.45;1.20;;;;;;;;;;7391901;19;20018;-72
2022/09/24 02:31:09;;;;;;;1.83;1.50;;;;;;;;;;7395838;19;20024;-72
2022/09/24 02:36:23;;;;;;;3.17;1.65;;;;;;;;;;7398843;19;20369;-72
2022/09/24 02:38:49;;;;;;;1.50;1.33;;;;;;;;;;7397904;19;19998;-72
2022/09/24 02:41:15;;;;;;;2.40;1.63;;;;;;;;;;7394300;19;19999;-71
2022/09/24 02:43:41;;;;;;;2.30;1.63;;;;;;;;;;7396558;19;20012;-72
2022/09/24 02:46:09;;;;;;;2.97;1.50;;;;;;;;;;7395788;19;20458;-72
2022/09/24 02:48:37;;;;;;;2.25;1.67;;;;;;;;;;7397524;19;20009;-72
2022/09/24 02:51:04;;;;;;;1.50;1.30;;;;;;;;;;7394405;19;20470;-71
2022/09/24 02:53:30;;;;;;;1.92;1.40;;;;;;;;;;7398189;19;20054;-72
2022/09/24 02:55:56;;;;;;;2.47;1.77;;;;;;;;;;7394314;19;20032;-72
2022/09/24 02:58:21;;;;;;;3.97;1.60;;;;;;;;;;7396440;19;19998;-72
2022/09/24 03:00:47;;;;;;;1.23;1.10;;;;;;;;;;7394200;19;19991;-71
2022/09/24 03:03:12;;;;;;;3.33;1.67;;;;;;;;;;7397290;19;20122;-72
2022/09/24 03:05:37;;;;;;;2.25;1.42;;;;;;;;;;7395954;19;19998;-72
2022/09/24 03:08:03;;;;;;;3.45;1.70;;;;;;;;;;7396018;19;20312;-72
2022/09/24 03:10:29;;;;;;;4.15;2.08;;;;;;;;;;7393177;19;20482;-72
2022/09/24 03:12:55;;;;;;;1.30;1.15;;;;;;;;;;7394164;19;20002;-72
2022/09/24 03:15:20;;;;;;;2.00;1.50;;;;;;;;;;7394421;19;20003;-72
2022/09/24 03:17:46;;;;;;;1.50;1.30;;;;;;;;;;7390506;19;20096;-72
2022/09/24 03:20:11;;;;;;;1.58;1.30;;;;;;;;;;7395688;19;20455;-72
2022/09/24 03:22:36;;;;;;;2.88;1.33;;;;;;;;;;7397858;19;20003;-72
2022/09/24 03:25:02;;;;;;;1.77;1.20;;;;;;;;;;7394194;19;19990;-72
2022/09/24 03:27:27;;;;;;;2.80;1.20;;;;;;;;;;7393634;19;20005;-72
2022/09/24 03:32:37;;;;;;;2.17;1.70;;;;;;;;;;7392782;19;20002;-72
2022/09/24 03:35:03;;;;;;;1.98;1.52;;;;;;;;;;7393247;19;20453;-72
2022/09/24 03:37:28;;;;;;;2.95;1.70;;;;;;;;;;7396773;19;20006;-72
2022/09/24 03:39:53;;;;;;;2.30;1.20;;;;;;;;;;7392287;19;19998;-72
2022/09/24 03:42:18;;;;;;;2.72;1.48;;;;;;;;;;7395173;19;20039;-72
2022/09/24 03:44:44;;;;;;;3.25;1.25;;;;;;;;;;7393355;19;19999;-72
2022/09/24 03:47:09;;;;;;;2.50;1.35;;;;;;;;;;7393188;19;20495;-74
2022/09/24 03:49:34;;;;;;;1.65;1.15;;;;;;;;;;7396855;19;19997;-72
2022/09/24 03:52:00;;;;;;;2.92;1.40;;;;;;;;;;7391981;19;20042;-72
2022/09/24 03:54:25;;;;;;;1.23;1.13;;;;;;;;;;7394145;19;20473;-72
2022/09/24 03:56:50;;;;;;;1.48;1.23;;;;;;;;;;7395524;19;20022;-72
2022/09/24 03:59:15;;;;;;;1.60;1.30;;;;;;;;;;7392017;19;20022;-72
2022/09/24 04:01:41;;;;;;;2.50;1.58;;;;;;;;;;7397227;19;19999;-72
2022/09/24 04:04:06;;;;;;;2.47;1.42;;;;;;;;;;7393852;19;20078;-72
2022/09/24 04:06:31;;;;;;;3.88;1.95;;;;;;;;;;7396036;19;19995;-72
2022/09/24 04:08:57;;;;;;;4.60;1.45;;;;;;;;;;7392051;19;20116;-72
2022/09/24 04:11:23;;;;;;;3.08;1.33;;;;;;;;;;7391175;19;19990;-72
2022/09/24 04:13:49;;;;;;;2.00;1.45;;;;;;;;;;7391718;19;20023;-72
2022/09/24 04:16:15;;;;;;;1.42;1.30;;;;;;;;;;7393403;19;20066;-72
2022/09/24 04:18:40;;;;;;;1.55;1.42;;;;;;;;;;7390952;19;20070;-72
2022/09/24 04:21:06;;;;;;;2.00;1.40;;;;;;;;;;7393693;19;20424;-72
2022/09/24 04:23:31;;;;;;;2.50;1.58;;;;;;;;;;7392964;19;20006;-72
2022/09/24 04:26:01;;;;;;;1.80;1.60;;;;;;;;;;7395486;19;19999;-72
2022/09/24 04:28:26;;;;;;;2.40;1.55;;;;;;;;;;7390592;19;20023;-72
2022/09/24 04:30:52;;;;;;;1.83;1.58;;;;;;;;;;7390856;19;19991;-72
2022/09/24 04:33:17;;;;;;;1.30;1.17;;;;;;;;;;7392837;19;20424;-72
2022/09/24 04:35:44;;;;;;;1.73;1.50;;;;;;;;;;7392887;19;20009;-72
2022/09/24 04:38:10;;;;;;;2.53;1.92;;;;;;;;;;7393561;19;20435;-72
2022/09/24 04:40:35;;;;;;;3.42;1.75;;;;;;;;;;7388836;19;19994;-72
2022/09/24 04:43:01;;;;;;;6.05;1.92;;;;;;;;;;7391892;19;19995;-72
2022/09/24 04:45:26;;;;;;;3.88;1.60;;;;;;;;;;7391094;19;19999;-72
2022/09/24 04:47:56;;;;;;;2.45;1.80;;;;;;;;;;7390329;19;20269;-72
2022/09/24 04:50:32;;;;;;;2.28;1.58;;;;;;;;;;7393479;19;20004;-72
2022/09/24 04:52:58;;;;;;;2.60;1.80;;;;;;;;;;7390629;19;19994;-72
2022/09/24 04:55:24;;;;;;;1.95;1.40;;;;;;;;;;7388846;19;20018;-72
2022/09/24 04:57:49;;;;;;;2.25;1.58;;;;;;;;;;7394335;19;20007;-72
2022/09/24 05:00:17;;;;;;;3.70;1.63;;;;;;;;;;7392200;19;19999;-72
2022/09/24 05:02:43;;;;;;;1.95;1.63;;;;;;;;;;7390051;19;20514;-72
2022/09/24 05:05:10;;;;;;;2.15;1.50;;;;;;;;;;7390800;19;20015;-72
2022/09/24 05:07:36;;;;;;;2.45;1.63;;;;;;;;;;7387680;19;20006;-72
2022/09/24 05:10:01;;;;;;;2.10;1.40;;;;;;;;;;7391126;19;20486;-72
2022/09/24 05:12:26;;;;;;;2.88;1.70;;;;;;;;;;7392069;19;20012;-72
2022/09/24 05:14:52;;;;;;;2.65;1.75;;;;;;;;;;7393129;19;20022;-72
2022/09/24 05:17:17;;;;;;;1.92;1.30;;;;;;;;;;7393430;19;19998;-72
2022/09/24 05:19:43;;;;;;;2.00;1.40;;;;;;;;;;7389704;19;20466;-73
2022/09/24 05:22:08;;;;;;;2.28;1.63;;;;;;;;;;7384023;19;20490;-71
2022/09/24 05:24:33;;;;;;;2.58;1.77;;;;;;;;;;7384124;19;19998;-71
2022/09/24 05:27:08;;;;;;;1.63;1.50;;;;;;;;;;7385534;19;20006;-72
2022/09/24 05:29:34;;;;;;;2.60;1.55;;;;;;;;;;7391374;19;19995;-72
2022/09/24 05:32:04;;;;;;;3.03;2.05;;;;;;;;;;7393481;19;20010;-72
2022/09/24 05:34:30;;;;;;;3.67;1.55;;;;;;;;;;7389513;19;20014;-71
2022/09/24 05:36:55;;;;;;;2.35;1.50;;;;;;;;;;7385753;19;20013;-72
2022/09/24 05:39:20;;;;;;;1.83;1.60;;;;;;;;;;7390966;19;20003;-72
2022/09/24 05:41:46;;;;;;;1.75;1.50;;;;;;;;;;7397691;19;19999;-72
2022/09/24 05:44:11;;;;;;;1.90;1.63;;;;;;;;;;7399275;19;20021;-71
2022/09/24 05:46:37;;;;;;;4.28;2.10;;;;;;;;;;7399540;19;20023;-71
2022/09/24 05:49:02;;;;;;;3.92;2.17;;;;;;;;;;7397971;19;20023;-71
2022/09/24 05:51:27;;;;;;;3.85;2.35;;;;;;;;;;7399181;19;20015;-71
2022/09/24 05:53:53;;;;;;;3.63;1.90;;;;;;;;;;7396728;19;20032;-72
2022/09/24 05:56:18;;;;;;;3.67;2.03;;;;;;;;;;7398576;19;20014;-72
2022/09/24 05:58:43;;;;;;;4.13;2.10;;;;;;;;;;7398157;19;20414;-72
2022/09/24 06:01:09;;;;;;;3.80;2.47;;;;;;;;;;7399226;19;20074;-72
2022/09/24 06:03:34;;;;;;;3.22;2.45;;;;;;;;;;7399152;19;20007;-72
2022/09/24 06:06:00;;;;;;;4.15;2.70;;;;;;;;;;7397535;19;20014;-72
2022/09/24 06:08:28;;;;;;;6.75;2.83;;;;;;;;;;7396641;19;20010;-72
2022/09/24 06:11:01;;;;;;;5.70;2.40;;;;;;;;;;7395290;19;20010;-72
2022/09/24 06:13:27;;;;;;;4.45;2.45;;;;;;;;;;7397128;19;20470;-72
2022/09/24 06:16:03;;;;;;;3.58;2.28;;;;;;;;;;7397723;19;20024;-72
2022/09/24 06:18:28;;;;;;;4.25;2.13;;;;;;;;;;7397854;19;20023;-72
2022/09/24 06:20:54;;;;;;;3.42;1.70;;;;;;;;;;7399935;19;20376;-72
2022/09/24 06:23:19;;;;;;;5.97;2.55;;;;;;;;;;7395986;19;20701;-72
2022/09/24 06:25:49;;;;;;;4.53;2.33;;;;;;;;;;7394596;19;20033;-72
2022/09/24 06:28:14;;;;;;;3.05;2.10;;;;;;;;;;7398089;19;20006;-72
2022/09/24 06:30:40;;;;;;;5.07;3.30;;;;;;;;;;7397984;19;20007;-72
2022/09/24 06:33:10;;;;;;;3.83;2.60;;;;;;;;;;7392735;19;20016;-73
2022/09/24 06:35:37;;;;;;;4.25;2.80;;;;;;;;;;7395830;19;20484;-72
2022/09/24 06:38:04;;;;;;;7.25;3.28;;;;;;;;;;7397434;19;20376;-73
2022/09/24 06:40:30;;;;;;;18.30;5.88;;;;;;;;;;7394413;19;20010;-72
2022/09/24 06:42:55;;;;;;;14.82;5.18;;;;;;;;;;7393923;19;20069;-72
2022/09/24 06:45:21;;;;;;;9.70;4.25;;;;;;;;;;7392804;19;20011;-73
2022/09/24 06:47:54;;;;;;;7.25;3.35;;;;;;;;;;7398498;19;20032;-73
2022/09/24 06:50:20;;;;;;;4.38;2.65;;;;;;;;;;7392127;19;20528;-72
2022/09/24 06:52:45;;;;;;;4.30;2.10;;;;;;;;;;7396742;19;20010;-72
2022/09/24 06:55:11;;;;;;;3.40;2.55;;;;;;;;;;7395307;19;20031;-72
2022/09/24 06:57:36;;;;;;;3.33;2.30;;;;;;;;;;7396521;19;20034;-72
2022/09/24 07:00:01;;;;;;;4.97;2.75;;;;;;;;;;7396439;19;19998;-73
2022/09/24 07:02:29;;;;;;;2.95;2.35;;;;;;;;;;7396422;19;20003;-72
2022/09/24 07:04:54;;;;;;;3.13;1.85;;;;;;;;;;7397175;19;19990;-73
2022/09/24 07:07:28;;;;;;;4.95;3.28;;;;;;;;;;7395925;19;20024;-73
2022/09/24 07:09:55;;;;;;;4.97;3.10;;;;;;;;;;7395385;19;20443;-72
2022/09/24 07:12:20;;;;;;;4.40;2.30;;;;;;;;;;7398172;19;20270;-74
2022/09/24 07:14:46;;;;;;;10.95;5.97;;;;;;;;;;7394978;19;19990;-74
2022/09/24 07:17:11;;;;;;;5.10;3.30;;;;;;;;;;7395521;19;20014;-74
2022/09/24 07:19:37;;;;;;;4.88;2.60;;;;;;;;;;7393708;19;20481;-74
2022/09/24 07:22:03;;;;;;;6.93;3.05;;;;;;;;;;7396914;19;19995;-74
2022/09/24 07:24:28;;;;;;;3.83;2.45;;;;;;;;;;7395827;19;20014;-74
2022/09/24 07:26:53;;;;;;;4.60;3.00;;;;;;;;;;7394043;19;19999;-75
2022/09/24 07:29:19;;;;;;;8.90;3.10;;;;;;;;;;7393559;19;20369;-74
2022/09/24 07:31:44;;;;;;;5.75;3.40;;;;;;;;;;7392806;19;20006;-73
2022/09/24 07:34:09;;;;;;;3.63;2.85;;;;;;;;;;7394423;19;20325;-73
2022/09/24 07:36:35;;;;;;;4.82;2.70;;;;;;;;;;7397332;19;20003;-74
2022/09/24 07:39:01;;;;;;;4.90;3.42;;;;;;;;;;7390458;19;20009;-73
2022/09/24 07:41:26;;;;;;;5.50;2.90;;;;;;;;;;7395815;19;20007;-74
2022/09/24 07:43:52;;;;;;;5.10;3.10;;;;;;;;;;7395639;19;20006;-74
2022/09/24 07:46:18;;;;;;;4.40;2.83;;;;;;;;;;7396434;19;20027;-74
2022/09/24 07:48:44;;;;;;;2.65;2.33;;;;;;;;;;7392865;19;20458;-74
2022/09/24 07:51:10;;;;;;;4.13;3.05;;;;;;;;;;7394302;19;20027;-74
2022/09/24 07:53:35;;;;;;;5.72;3.13;;;;;;;;;;7392213;19;20021;-73
2022/09/24 07:56:01;;;;;;;4.00;2.80;;;;;;;;;;7395017;19;20526;-73
2022/09/24 07:58:26;;;;;;;3.95;2.50;;;;;;;;;;7391388;19;20035;-74
2022/09/24 08:00:51;;;;;;;4.40;3.00;;;;;;;;;;7396145;19;20071;-74
2022/09/24 08:03:17;;;;;;;6.38;3.35;;;;;;;;;;7393369;19;19999;-73
2022/09/24 08:05:45;;;;;;;3.42;2.80;;;;;;;;;;7392238;19;20443;-72
2022/09/24 08:08:11;;;;;;;3.42;2.67;;;;;;;;;;7394710;19;20019;-74
2022/09/24 08:10:37;;;;;;;6.32;4.10;;;;;;;;;;7390800;19;20006;-74
2022/09/24 08:13:02;;;;;;;5.40;2.75;;;;;;;;;;7393628;19;20022;-74
2022/09/24 08:15:27;;;;;;;3.05;2.40;;;;;;;;;;7394717;19;20019;-74
2022/09/24 08:17:53;;;;;;;8.02;2.83;;;;;;;;;;7394839;19;19999;-73
2022/09/24 08:20:18;;;;;;;5.10;2.90;;;;;;;;;;7392418;19;20007;-74
2022/09/24 08:22:43;;;;;;;4.82;3.20;;;;;;;;;;7393547;19;20050;-75
2022/09/24 08:25:09;;;;;;;2.78;2.15;;;;;;;;;;7392756;19;20027;-74
2022/09/24 08:27:36;;;;;;;3.13;2.17;;;;;;;;;;7393605;19;20317;-74
2022/09/24 08:30:03;;;;;;;3.72;2.38;;;;;;;;;;7393961;19;20006;-74
2022/09/24 08:32:28;;;;;;;3.30;2.05;;;;;;;;;;7392747;19;20018;-74
2022/09/24 08:34:54;;;;;;;3.90;2.50;;;;;;;;;;7392865;19;20507;-73
2022/09/24 08:37:19;;;;;;;4.88;3.00;;;;;;;;;;7391333;19;20014;-74
2022/09/24 08:39:44;;;;;;;4.53;2.47;;;;;;;;;;7392551;19;20013;-75
2022/09/24 08:42:18;;;;;;;4.63;2.63;;;;;;;;;;7392747;19;19998;-74
2022/09/24 08:47:50;;;;;;;7.20;3.17;;;;;;;;;;7389205;19;20520;-73
2022/09/24 08:50:19;;;;;;;6.70;3.55;;;;;;;;;;7392824;19;20561;-74
2022/09/24 08:52:54;;;;;;;6.15;3.17;;;;;;;;;;7392771;19;20694;-74
2022/09/24 08:55:35;;;;;;;4.95;2.45;;;;;;;;;;7391880;19;19994;-74
2022/09/24 08:58:17;;;;;;;6.22;2.55;;;;;;;;;;7390318;19;20006;-75
2022/09/24 09:00:53;;;;;;;4.22;2.60;;;;;;;;;;7392586;19;20010;-75
2022/09/24 09:03:57;;;;;;;7.93;2.55;;;;;;;;;;7392267;19;20394;-74
2022/09/24 09:06:43;;;;;;;3.15;2.65;;;;;;;;;;7387877;19;20010;-75
2022/09/24 09:09:13;;;;;;;4.00;2.28;;;;;;;;;;7391609;19;20054;-74
2022/09/24 09:11:41;;;;;;;2.92;2.45;;;;;;;;;;7392477;19;20018;-76
2022/09/24 09:14:16;;;;;;;2.67;2.13;;;;;;;;;;7388519;19;20045;-75
2022/09/24 09:16:56;;;;;;;4.05;2.10;;;;;;;;;;7392136;19;20097;-74
2022/09/24 09:19:27;;;;;;;2.50;1.98;;;;;;;;;;7390950;19;20007;-75
2022/09/24 09:22:11;;;;;;;3.47;1.80;;;;;;;;;;7395433;19;19998;-75
2022/09/24 09:24:53;;;;;;;2.83;1.83;;;;;;;;;;7390136;19;20014;-75
2022/09/24 09:27:19;;;;;;;3.03;1.90;;;;;;;;;;7392951;19;20094;-75
2022/09/24 09:29:49;;;;;;;7.40;3.38;;;;;;;;;;7389961;19;20011;-75
2022/09/24 09:32:48;;;;;;;5.18;2.33;;;;;;;;;;7391172;19;20014;-76
2022/09/24 09:35:25;;;;;;;7.20;2.50;;;;;;;;;;7392994;19;20044;-75
2022/09/24 09:37:56;;;;;;;4.65;2.10;;;;;;;;;;7389834;19;21640;-76
2022/09/24 09:40:38;;;;;;;4.15;2.53;;;;;;;;;;7390794;19;20055;-76
2022/09/24 09:43:08;;;;;;;5.30;2.38;;;;;;;;;;7393160;19;20019;-76
2022/09/24 09:45:54;;;;;;;3.78;2.90;;;;;;;;;;7389928;19;20038;-73
2022/09/24 09:48:23;;;;;;;4.53;2.25;;;;;;;;;;7390372;19;20354;-73
2022/09/24 09:51:02;;;;;;;2.72;2.08;;;;;;;;;;7390314;19;20367;-73
2022/09/24 09:53:32;;;;;;;3.60;2.53;;;;;;;;;;7392392;19;20046;-73
2022/09/24 09:55:59;;;;;;;3.08;2.47;;;;;;;;;;7388718;19;20006;-72
2022/09/24 09:58:34;;;;;;;3.13;2.30;;;;;;;;;;7391540;19;20090;-72
2022/09/24 10:01:09;;;;;;;3.47;2.70;;;;;;;;;;7389287;19;20010;-73
2022/09/24 10:03:43;;;;;;;4.40;2.67;;;;;;;;;;7392978;19;20002;-72
2022/09/24 10:06:10;;;;;;;5.47;3.40;;;;;;;;;;7389618;19;20011;-72
2022/09/24 10:08:36;;;;;;;2.65;1.95;;;;;;;;;;7390022;19;19999;-71
2022/09/24 10:11:02;;;;;;;4.25;2.53;;;;;;;;;;7388928;19;20005;-71
2022/09/24 10:13:30;;;;;;;3.42;2.13;;;;;;;;;;7389309;19;20525;-73
2022/09/24 10:15:58;;;;;;;4.63;2.53;;;;;;;;;;7390726;19;20471;-71
2022/09/24 10:18:33;;;;;;;4.22;2.70;;;;;;;;;;7391090;19;19995;-71
2022/09/24 10:21:01;;;;;;;;;;;;;;;;;;7387989;19;20105;-71
2022/09/24 10:23:41;;;;;;;3.72;2.28;;;;;;;;;;7392497;19;19921;-71
2022/09/24 10:26:08;;;;;;;4.35;1.90;;;;;;;;;;7388612;19;20332;-71
2022/09/24 10:31:28;;;;;;;3.28;2.30;;;;;;;;;;7399153;19;20017;-71
2022/09/24 10:33:55;;;;;;;3.20;2.08;;;;;;;;;;7394820;19;19998;-71
2022/09/24 10:36:26;;;;;;;2.28;1.90;;;;;;;;;;7392359;19;20027;-71
2022/09/24 10:39:21;;;;;;;2.47;1.80;;;;;;;;;;7385065;19;20014;-73
2022/09/24 10:41:48;;;;;;;5.27;1.90;;;;;;;;;;7395407;19;20032;-75
2022/09/24 10:44:15;;;;;;;3.80;2.42;;;;;;;;;;7396995;19;20018;-75
2022/09/24 10:46:57;;;;;;;4.35;2.30;;;;;;;;;;7398002;19;20031;-72
2022/09/24 10:50:04;;;;;;;3.08;2.20;;;;;;;;;;7389961;19;20010;-72
2022/09/24 10:52:38;;;;;;;2.88;2.25;;;;;;;;;;7397330;19;20014;-72
2022/09/24 10:55:23;;;;;;;4.60;2.22;;;;;;;;;;7391448;19;20011;-72
2022/09/24 10:58:01;;;;;;;2.30;1.95;;;;;;;;;;7397219;19;20014;-72
2022/09/24 11:00:45;;;;;;;4.25;2.40;;;;;;;;;;7395250;19;20039;-73
2022/09/24 11:03:32;;;;;;;2.83;2.17;;;;;;;;;;7397578;19;20014;-73
2022/09/24 11:06:17;;;;;;;3.00;2.30;;;;;;;;;;7395600;19;20496;-73
2022/09/24 11:09:01;;;;;;;2.40;1.98;;;;;;;;;;7397450;19;20010;-73
2022/09/24 11:12:14;;;;;;;3.67;2.20;;;;;;;;;;7396630;19;20530;-76
2022/09/24 11:15:23;;;;;;;3.28;2.15;;;;;;;;;;7391992;19;20011;-76
2022/09/24 11:18:18;;;;;;;3.17;2.00;;;;;;;;;;7394659;19;20088;-76
2022/09/24 11:21:15;;;;;;;2.00;1.90;;;;;;;;;;7392344;19;20010;-75
2022/09/24 11:24:15;;;;;;;3.83;2.20;;;;;;;;;;7396550;19;20007;-75
2022/09/24 11:27:08;;;;;;;3.10;2.13;;;;;;;;;;7393367;19;20014;-75
2022/09/24 11:29:47;;;;;;;2.72;2.03;;;;;;;;;;7395098;19;20022;-75
2022/09/24 11:32:37;;;;;;;2.92;1.70;;;;;;;;;;7394366;19;20107;-75
2022/09/24 11:35:24;;;;;;;2.88;2.20;;;;;;;;;;7391492;19;20029;-75
2022/09/24 11:38:35;;;;;;;3.80;1.98;;;;;;;;;;7393162;19;20482;-77
2022/09/24 11:41:25;;;;;;;2.42;1.98;;;;;;;;;;7390364;19;20465;-77
2022/09/24 11:44:16;;;;;;;2.10;1.92;;;;;;;;;;7395942;19;20397;-77
2022/09/24 11:47:26;;;;;;;4.55;2.50;;;;;;;;;;7393253;19;20013;-77
2022/09/24 11:50:16;;;;;;;2.72;2.33;;;;;;;;;;7394706;19;20007;-77
2022/09/24 11:52:55;;;;;;;6.03;2.63;;;;;;;;;;7398207;19;20002;-77
2022/09/24 11:55:31;;;;;;;3.83;2.20;;;;;;;;;;7390773;19;19999;-77
2022/09/24 11:58:11;;;;;;;3.33;2.10;;;;;;;;;;7394972;19;20019;-77
2022/09/24 12:00:43;;;;;;;3.08;2.72;;;;;;;;;;7392117;19;20022;-77
2022/09/24 12:03:18;;;;;;;2.47;1.92;;;;;;;;;;7394461;19;20007;-77
2022/09/24 12:06:03;;;;;;;3.30;2.33;;;;;;;;;;7396873;19;20006;-77
2022/09/24 12:08:37;;;;;;;4.18;2.75;;;;;;;;;;7392995;19;20621;-75
2022/09/24 12:11:29;;;;;;;4.00;2.63;;;;;;;;;;7393885;19;20011;-75
2022/09/24 12:14:02;;;;;;;4.00;2.53;;;;;;;;;;7394814;19;20006;-74
2022/09/24 12:16:32;;;;;;;3.78;2.05;;;;;;;;;;7390699;19;20043;-74
2022/09/24 12:19:14;;;;;;;2.97;2.10;;;;;;;;;;7389935;19;20022;-74
2022/09/24 12:21:42;;;;;;;3.13;2.10;;;;;;;;;;7395762;19;20491;-74
2022/09/24 12:24:19;;;;;;;2.63;1.92;;;;;;;;;;7395257;19;20078;-73
2022/09/24 12:26:46;;;;;;;5.90;2.63;;;;;;;;;;7394307;19;20465;-74
2022/09/24 12:32:55;;;;;;;1.95;1.80;;;;;;;;;;7389638;19;20005;-79
2022/09/24 12:35:26;;;;;;;2.95;2.30;;;;;;;;;;7393929;19;20007;-75
2022/09/24 12:37:59;;;;;;;2.10;1.90;;;;;;;;;;7390555;19;20006;-76
2022/09/24 12:41:09;;;;;;;3.33;2.05;;;;;;;;;;7388480;19;20011;-82
2022/09/24 12:43:53;;;;;;;5.72;2.55;;;;;;;;;;7390211;19;20486;-78
2022/09/24 12:46:50;;;;;;;4.00;2.42;;;;;;;;;;7395164;19;20003;-81
2022/09/24 12:49:16;;;;;;;6.30;2.33;;;;;;;;;;7392030;19;20015;-77
2022/09/24 12:51:41;;;;;;;3.38;2.30;;;;;;;;;;7393910;19;19995;-77
2022/09/24 12:54:27;;;;;;;3.22;2.22;;;;;;;;;;7390907;19;20021;-76
2022/09/24 12:57:14;;;;;;;2.33;2.13;;;;;;;;;;7393793;19;20458;-75
2022/09/24 12:59:54;;;;;;;5.15;2.80;;;;;;;;;;7393813;19;20139;-74
2022/09/24 13:02:22;;;;;;;2.92;2.00;;;;;;;;;;7394530;19;20435;-75
2022/09/24 13:04:51;;;;;;;3.65;2.88;;;;;;;;;;7393400;19;20058;-74
2022/09/24 13:07:38;;;;;;;3.38;2.20;;;;;;;;;;7389917;19;20014;-74
2022/09/24 13:10:25;;;;;;;4.35;2.75;;;;;;;;;;7391555;19;20009;-75
2022/09/24 13:12:51;;;;;;;5.18;2.50;;;;;;;;;;7394627;19;20342;-75
2022/09/24 13:15:37;;;;;;;3.08;2.10;;;;;;;;;;7388350;19;20070;-75
2022/09/24 13:18:20;;;;;;;9.65;2.53;;;;;;;;;;7391057;19;20009;-75
2022/09/24 13:20:58;;;;;;;3.67;2.30;;;;;;;;;;7391390;19;20114;-75
2022/09/24 13:23:24;;;;;;;4.95;2.58;;;;;;;;;;7390414;19;20006;-74
2022/09/24 13:26:03;;;;;;;2.63;2.25;;;;;;;;;;7392361;19;20352;-75
2022/09/24 13:28:32;;;;;;;3.78;2.28;;;;;;;;;;7387120;19;20021;-75
2022/09/24 13:31:21;;;;;;;4.97;2.60;;;;;;;;;;7393650;19;20042;-75
2022/09/24 13:33:52;;;;;;;4.30;2.20;;;;;;;;;;7391769;19;20020;-77
2022/09/24 13:36:37;;;;;;;2.70;2.22;;;;;;;;;;7392362;19;20017;-78
2022/09/24 13:39:21;;;;;;;4.93;2.72;;;;;;;;;;7389020;19;20013;-77
2022/09/24 13:41:52;;;;;;;5.45;2.83;;;;;;;;;;7393147;19;20011;-78
2022/09/24 13:44:32;;;;;;;3.15;2.50;;;;;;;;;;7391626;19;20011;-75
2022/09/24 13:47:21;;;;;;;6.40;2.80;;;;;;;;;;7390799;19;20499;-76
2022/09/24 13:49:50;;;;;;;3.20;2.20;;;;;;;;;;7389991;19;20503;-77
2022/09/24 13:52:32;;;;;;;4.28;2.45;;;;;;;;;;7391362;19;20058;-75
2022/09/24 13:55:05;;;;;;;2.83;2.13;;;;;;;;;;7388097;19;20520;-75
2022/09/24 13:57:42;;;;;;;2.45;2.00;;;;;;;;;;7392650;19;20002;-75
2022/09/24 14:00:16;;;;;;;2.15;1.90;;;;;;;;;;7390360;19;19990;-75
2022/09/24 14:02:50;;;;;;;3.22;2.25;;;;;;;;;;7398193;19;19999;-74
2022/09/24 14:05:18;;;;;;;3.60;2.10;;;;;;;;;;7394284;19;20039;-75
2022/09/24 14:07:56;;;;;;;4.63;2.10;;;;;;;;;;7397654;19;20094;-75
2022/09/24 14:10:23;;;;;;;4.18;2.10;;;;;;;;;;7397216;19;20023;-75
2022/09/24 14:13:21;;;;;;;2.63;2.05;;;;;;;;;;7400739;19;20022;-76
2022/09/24 14:16:06;;;;;;;4.53;2.10;;;;;;;;;;7398969;19;20009;-78
2022/09/24 14:18:32;;;;;;;3.80;2.40;;;;;;;;;;7395305;19;20031;-77
2022/09/24 14:21:09;;;;;;;4.20;2.72;;;;;;;;;;7395597;19;20335;-78
2022/09/24 14:23:47;;;;;;;4.63;2.00;;;;;;;;;;7398064;19;20018;-78
2022/09/24 14:26:26;;;;;;;3.50;2.30;;;;;;;;;;7399726;19;20001;-78
2022/09/24 14:28:52;;;;;;;3.83;1.77;;;;;;;;;;7395206;19;20011;-77
2022/09/24 14:31:18;;;;;;;5.22;2.08;;;;;;;;;;7397192;19;20071;-77
2022/09/24 14:33:43;;;;;;;6.22;2.08;;;;;;;;;;7396905;19;20488;-78
2022/09/24 14:36:13;;;;;;;3.08;2.28;;;;;;;;;;7398498;19;20340;-78
2022/09/24 14:38:55;;;;;;;2.90;1.88;;;;;;;;;;7392494;19;19999;-77
2022/09/24 14:41:22;;;;;;;3.38;2.00;;;;;;;;;;7390248;19;20021;-77
2022/09/24 14:43:53;;;;;;;2.88;1.90;;;;;;;;;;7399801;19;19995;-77
2022/09/24 14:46:26;;;;;;;3.92;2.60;;;;;;;;;;7397426;19;20017;-78
2022/09/24 14:49:03;;;;;;;2.53;1.92;;;;;;;;;;7397097;19;20025;-78
2022/09/24 14:51:29;;;;;;;2.92;1.95;;;;;;;;;;7397094;19;20018;-77
2022/09/24 14:54:27;;;;;;;2.63;2.05;;;;;;;;;;7400005;19;20381;-78
2022/09/24 14:56:53;;;;;;;4.28;2.50;;;;;;;;;;7394820;19;20032;-78
2022/09/24 14:59:29;;;;;;;5.95;2.80;;;;;;;;;;7393686;19;20009;-76
2022/09/24 15:02:15;;;;;;;3.88;2.47;;;;;;;;;;7398954;19;20422;-76
2022/09/24 15:04:44;;;;;;;;;;;;;;;;;;7399110;19;20009;-77
2022/09/24 15:07:27;;;;;;;2.80;2.05;;;;;;;;;;7391290;19;20344;-77
2022/09/24 15:09:55;;;;;;;2.85;1.95;;;;;;;;;;7397571;19;20349;-77
2022/09/24 15:12:30;;;;;;;2.97;2.08;;;;;;;;;;7395910;19;20106;-77
2022/09/24 15:14:58;;;;;;;2.72;1.88;;;;;;;;;;7392166;19;20010;-77
2022/09/24 15:17:29;;;;;;;3.65;1.70;;;;;;;;;;7393317;19;20002;-76
2022/09/24 15:19:56;;;;;;;3.00;2.17;;;;;;;;;;7396611;19;20011;-76
2022/09/24 15:22:24;;;;;;;3.25;1.77;;;;;;;;;;7397472;19;20002;-77
2022/09/24 15:24:49;;;;;;;2.55;2.35;;;;;;;;;;7394108;19;20013;-77
2022/09/24 15:27:20;;;;;;;4.88;1.70;;;;;;;;;;7397090;19;20066;-76
2022/09/24 15:29:46;;;;;;;4.28;2.13;;;;;;;;;;7389943;19;20001;-77